Bookmark and Share
Track history (hours):
 

Kittitas

More information available from US FCC via Universal Licensing System and Coast Guard Vessel Documentation Center.

Last reported at 2014-Apr-21 14:34 UTC. Time now 2014-Apr-21 15:22 UTC.
Position N 47°57' W 122°19'.

Length 100 m.

Type: Passenger vessel. MMSI: 366772960.

NotesDate/timePositionNaut miles runAvg speedWind from/ knotsBaromVisibWave heightAir tempDewpointWater temp
2014-Apr-21 14:34N 47°57' W 122°19'1 1.0
2014-Apr-21 13:37N 47°58' W 122°20'115.8
2014-Apr-21 13:34N 47°57' W 122°19'2 3.2
2014-Apr-21 13:02N 47°58' W 122°21'2 4.5
2014-Apr-21 12:33N 47°57' W 122°18'2 6.9
2014-Apr-21 12:12N 47°59' W 122°21'0 0.4
2014-Apr-21 11:32N 47°59' W 122°21'0 0.3
2014-Apr-21 10:52N 47°59' W 122°21'0 0.4
2014-Apr-21 10:26N 47°59' W 122°21'1 3.7
2014-Apr-21 10:16N 47°59' W 122°20'1 1.4
2014-Apr-21 09:33N 47°58' W 122°20'1 0.9
2014-Apr-21 08:20N 47°59' W 122°21'0 0.0
2014-Apr-21 05:08N 47°59' W 122°21'0 0.9
2014-Apr-21 04:47N 47°59' W 122°21'2 8.3
2014-Apr-21 04:33N 47°59' W 122°18'1 5.9
2014-Apr-21 04:21N 47°58' W 122°20'1 1.2
2014-Apr-21 03:34N 47°58' W 122°19'1 0.8
2014-Apr-21 02:33N 47°57' W 122°18'0 0.0
2014-Apr-21 01:33N 47°57' W 122°18'2 3.8
2014-Apr-21 01:06N 47°58' W 122°20'2 2.9
2014-Apr-21 00:33N 47°57' W 122°18'0 0.1
2014-Apr-20 23:33N 47°57' W 122°18'1 3.0
2014-Apr-20 23:06N 47°58' W 122°20'1 2.5
2014-Apr-20 22:33N 47°57' W 122°18'0 0.0
2014-Apr-20 21:33N 47°57' W 122°18'0 0.1
2014-Apr-20 20:33N 47°57' W 122°18'2 4.3
2014-Apr-20 20:01N 47°58' W 122°21'2 4.9
2014-Apr-20 19:33N 47°57' W 122°18'1 3.2
2014-Apr-20 19:06N 47°58' W 122°20'1 2.0
2014-Apr-20 18:33N 47°57' W 122°19'1 2.0
2014-Apr-20 18:05N 47°58' W 122°20'1 1.8
2014-Apr-20 17:33N 47°57' W 122°19'0 0.1
2014-Apr-20 16:33N 47°57' W 122°19'0 0.1
2014-Apr-20 15:33N 47°57' W 122°19'2 0.7
2014-Apr-20 13:08N 47°59' W 122°21'0 0.0
2014-Apr-20 12:33N 47°59' W 122°21'0 0.0
2014-Apr-20 10:24N 47°59' W 122°21'0 0.0
2014-Apr-20 09:26N 47°59' W 122°21'0 0.0
2014-Apr-20 08:27N 47°59' W 122°21'0 0.0
2014-Apr-20 07:30N 47°59' W 122°21'0 0.0
2014-Apr-20 06:32N 47°59' W 122°21'0 0.0
2014-Apr-20 05:33N 47°59' W 122°21'0 4.6
2014-Apr-20 05:30N 47°59' W 122°21'1 0.8
2014-Apr-20 04:33N 47°58' W 122°21'0 0.4
2014-Apr-20 03:35N 47°58' W 122°21'014.5
2014-Apr-20 03:33N 47°58' W 122°21'0 0.7
2014-Apr-20 03:05N 47°58' W 122°21'2 4.1
2014-Apr-20 02:33N 47°57' W 122°18'0 0.4
2014-Apr-20 01:33N 47°57' W 122°19'0 0.1
2014-Apr-20 00:34N 47°57' W 122°19'0 0.4
2014-Apr-19 23:33N 47°57' W 122°18'0 0.1
2014-Apr-19 22:33N 47°57' W 122°18'1 1.6
2014-Apr-19 21:39N 47°58' W 122°20'114.4
2014-Apr-19 21:33N 47°57' W 122°18'0 0.0
2014-Apr-19 20:33N 47°57' W 122°18'0 0.1
2014-Apr-19 19:33N 47°57' W 122°18'2 4.0
2014-Apr-19 19:02N 47°58' W 122°21'2 4.1
2014-Apr-19 18:33N 47°57' W 122°19'2 3.7
2014-Apr-19 18:02N 47°58' W 122°21'2 4.5
2014-Apr-19 17:34N 47°57' W 122°18'0 0.2
2014-Apr-19 16:33N 47°57' W 122°19'1 2.5
2014-Apr-19 16:06N 47°58' W 122°20'1 1.7
2014-Apr-19 15:34N 47°57' W 122°19'2 1.0
2014-Apr-19 13:33N 47°59' W 122°21'0 0.0
2014-Apr-19 12:33N 47°59' W 122°21'0 0.0
2014-Apr-19 11:33N 47°59' W 122°21'0 0.0
2014-Apr-19 10:33N 47°59' W 122°21'0 0.0
2014-Apr-19 09:33N 47°59' W 122°21'0 0.0
2014-Apr-19 08:33N 47°59' W 122°21'0 0.0
2014-Apr-19 07:33N 47°59' W 122°21'0 0.0
2014-Apr-19 05:23N 47°59' W 122°21'2 1.2
2014-Apr-19 03:33N 47°57' W 122°18'2 4.2
2014-Apr-19 03:06N 47°58' W 122°21'2 3.9
2014-Apr-19 02:33N 47°57' W 122°18'0 0.2
2014-Apr-19 01:33N 47°57' W 122°19'1 2.8
2014-Apr-19 01:05N 47°58' W 122°20'2 2.9
2014-Apr-19 00:33N 47°57' W 122°18'0 0.2
2014-Apr-18 23:33N 47°57' W 122°18'0 0.0
2014-Apr-18 22:33N 47°57' W 122°18'0 0.1
2014-Apr-18 21:33N 47°57' W 122°18'0 0.2
2014-Apr-18 20:34N 47°57' W 122°19'0 0.1
2014-Apr-18 19:33N 47°57' W 122°18'0 0.3
2014-Apr-18 18:33N 47°57' W 122°19'0 0.2
2014-Apr-18 17:33N 47°57' W 122°19'0 0.2
2014-Apr-18 16:33N 47°57' W 122°19'0 0.0
2014-Apr-18 15:33N 47°57' W 122°19'0 0.0
2014-Apr-18 14:33N 47°57' W 122°19'0 0.1
2014-Apr-18 13:33N 47°57' W 122°19'0 0.5
2014-Apr-18 12:33N 47°57' W 122°18'2 2.3
2014-Apr-18 11:32N 47°58' W 122°21'0 0.0
2014-Apr-18 10:29N 47°58' W 122°21'0 0.0
2014-Apr-18 09:33N 47°58' W 122°21'0 0.0
2014-Apr-18 08:30N 47°58' W 122°21'0 0.4
2014-Apr-18 07:32N 47°58' W 122°21'0 0.1
2014-Apr-18 06:33N 47°58' W 122°20'0 0.3
2014-Apr-18 05:33N 47°58' W 122°21'0 0.0
2014-Apr-18 04:33N 47°58' W 122°21'1 1.2
2014-Apr-18 03:33N 47°57' W 122°19'1 0.9
2014-Apr-18 02:33N 47°57' W 122°18'0 0.3
2014-Apr-18 01:33N 47°57' W 122°19'2 2.3
2014-Apr-18 00:44N 47°58' W 122°21'212.6
2014-Apr-18 00:33N 47°57' W 122°18'0 0.1
2014-Apr-17 23:34N 47°57' W 122°18'0 0.4
2014-Apr-17 22:33N 47°57' W 122°19'0 0.4
2014-Apr-17 21:33N 47°57' W 122°18'2 4.4
2014-Apr-17 21:03N 47°58' W 122°21'2 4.4
2014-Apr-17 20:33N 47°57' W 122°18'0 0.1
2014-Apr-17 19:33N 47°57' W 122°19'0 0.2
2014-Apr-17 18:33N 47°57' W 122°19'0 0.3
2014-Apr-17 17:33N 47°57' W 122°18'0 0.3
2014-Apr-17 16:33N 47°57' W 122°19'2 4.0
2014-Apr-17 16:05N 47°58' W 122°21'2 4.2
2014-Apr-17 15:34N 47°57' W 122°18'1 0.5
2014-Apr-17 14:33N 47°57' W 122°19'0 0.0
2014-Apr-17 13:33N 47°57' W 122°19'1 0.5
2014-Apr-17 12:33N 47°57' W 122°18'2 2.4
2014-Apr-17 11:33N 47°59' W 122°21'0 0.0
2014-Apr-17 09:26N 47°59' W 122°21'0 0.0
2014-Apr-17 08:10N 47°59' W 122°21'0 0.0
2014-Apr-17 07:09N 47°59' W 122°21'0 0.0
2014-Apr-17 04:10N 47°59' W 122°21'1 1.9
2014-Apr-17 03:33N 47°58' W 122°19'1 1.4
2014-Apr-17 02:33N 47°57' W 122°18'0 0.4
2014-Apr-17 01:33N 47°57' W 122°19'0 0.4
2014-Apr-17 00:33N 47°57' W 122°18'2 2.6
2014-Apr-16 23:44N 47°58' W 122°21'211.4
2014-Apr-16 23:33N 47°57' W 122°18'0 0.1
2014-Apr-16 22:33N 47°57' W 122°18'0 0.3
2014-Apr-16 21:33N 47°57' W 122°19'0 0.4
2014-Apr-16 20:33N 47°57' W 122°19'1 0.6
2014-Apr-16 19:33N 47°57' W 122°18'0 0.0
2014-Apr-16 18:33N 47°57' W 122°18'1 1.3
2014-Apr-16 17:38N 47°58' W 122°20'111.3
2014-Apr-16 17:33N 47°57' W 122°19'0 0.1
2014-Apr-16 16:33N 47°57' W 122°19'2 2.1
2014-Apr-16 15:43N 47°58' W 122°21'213.8
2014-Apr-16 15:33N 47°57' W 122°18'2 3.7
2014-Apr-16 15:03N 47°58' W 122°21'2 3.1
2014-Apr-16 14:34N 47°57' W 122°19'0 0.0
2014-Apr-16 13:33N 47°57' W 122°19'1 1.1
2014-Apr-16 12:42N 47°58' W 122°20'110.4
2014-Apr-16 12:33N 47°57' W 122°18'2 2.3
2014-Apr-16 11:33N 47°58' W 122°21'0 0.0
2014-Apr-16 10:33N 47°58' W 122°21'0 0.0
2014-Apr-16 09:33N 47°58' W 122°21'0 0.0
2014-Apr-16 08:33N 47°58' W 122°21'0 0.3
2014-Apr-16 08:17N 47°58' W 122°21'1 0.8
2014-Apr-16 07:33N 47°58' W 122°20'015.5
2014-Apr-16 07:32N 47°58' W 122°21'0 0.1
2014-Apr-16 06:33N 47°58' W 122°21'0 0.1
2014-Apr-16 05:34N 47°58' W 122°21'0 0.6
2014-Apr-16 05:12N 47°58' W 122°21'0 0.3
2014-Apr-16 04:33N 47°58' W 122°21'1 1.0
2014-Apr-16 03:33N 47°57' W 122°20'1 1.1
2014-Apr-16 02:33N 47°57' W 122°18'2 4.1
2014-Apr-16 02:02N 47°58' W 122°21'2 4.3
2014-Apr-16 01:33N 47°57' W 122°18'2 4.1
2014-Apr-16 01:02N 47°58' W 122°21'2 4.7
2014-Apr-16 00:33N 47°57' W 122°18'2 4.2
2014-Apr-16 00:02N 47°58' W 122°21'2 4.5
2014-Apr-15 23:33N 47°57' W 122°18'2 4.3
2014-Apr-15 23:02N 47°58' W 122°21'2 4.6
2014-Apr-15 22:33N 47°57' W 122°18'2 4.2
2014-Apr-15 22:02N 47°58' W 122°21'2 3.3
2014-Apr-15 21:33N 47°57' W 122°19'2 2.9
2014-Apr-15 21:01N 47°58' W 122°21'2 3.9
2014-Apr-15 20:33N 47°57' W 122°19'1 2.4
2014-Apr-15 20:06N 47°58' W 122°20'1 1.6
2014-Apr-15 19:33N 47°57' W 122°19'2 2.9
2014-Apr-15 19:02N 47°58' W 122°21'2 3.3
2014-Apr-15 18:33N 47°57' W 122°19'2 3.0
2014-Apr-15 18:02N 47°58' W 122°21'2 3.4
2014-Apr-15 17:34N 47°57' W 122°19'2 3.0
2014-Apr-15 17:01N 47°58' W 122°21'2 3.4
2014-Apr-15 16:33N 47°57' W 122°19'2 2.9
2014-Apr-15 16:01N 47°58' W 122°21'2 3.9
2014-Apr-15 15:33N 47°57' W 122°19'0 0.1
2014-Apr-15 14:33N 47°57' W 122°19'2 3.5
2014-Apr-15 14:02N 47°58' W 122°21'2 1.1
2014-Apr-15 12:34N 47°57' W 122°19'2 4.3
2014-Apr-15 12:12N 47°58' W 122°21'2 3.4
2014-Apr-15 11:34N 47°57' W 122°18'2 2.3
2014-Apr-15 10:33N 47°58' W 122°21'0 0.0
2014-Apr-15 09:33N 47°58' W 122°21'0 0.0
2014-Apr-15 08:33N 47°58' W 122°21'0 0.0
2014-Apr-15 07:34N 47°58' W 122°21'0 0.3
2014-Apr-15 07:12N 47°58' W 122°21'1 0.9
2014-Apr-15 06:34N 47°58' W 122°20'113.5
2014-Apr-15 06:31N 47°58' W 122°21'0 0.2
2014-Apr-15 05:33N 47°58' W 122°21'0 0.1
2014-Apr-15 03:34N 47°58' W 122°21'1 1.2
2014-Apr-15 02:34N 47°57' W 122°20'1 1.2
2014-Apr-15 02:06N 47°58' W 122°20'1 2.8
2014-Apr-15 01:34N 47°57' W 122°18'1 3.3
2014-Apr-15 01:06N 47°58' W 122°20'1 2.0
2014-Apr-15 00:34N 47°57' W 122°19'1 1.6
2014-Apr-14 23:41N 47°58' W 122°21'212.8
2014-Apr-14 23:34N 47°57' W 122°19'1 2.4
2014-Apr-14 23:11N 47°58' W 122°19'1 1.8
2014-Apr-14 22:33N 47°57' W 122°18'2 5.4
2014-Apr-14 22:11N 47°58' W 122°21'2 3.3
2014-Apr-14 21:34N 47°57' W 122°18'2 2.6
2014-Apr-14 20:56N 47°58' W 122°20'2 4.4
2014-Apr-14 20:34N 47°57' W 122°18'2 5.0
2014-Apr-14 20:15N 47°58' W 122°20'2 2.2
2014-Apr-14 19:33N 47°57' W 122°18'2 3.0
2014-Apr-14 18:50N 47°58' W 122°21'2 7.9
2014-Apr-14 18:34N 47°57' W 122°18'2 4.1
2014-Apr-14 18:00N 47°58' W 122°21'2 5.2
2014-Apr-14 17:34N 47°57' W 122°18'2 4.0
2014-Apr-14 17:01N 47°58' W 122°21'2 4.8
2014-Apr-14 16:34N 47°57' W 122°18'1 0.5
2014-Apr-14 15:34N 47°57' W 122°19'0 0.1
2014-Apr-14 14:34N 47°57' W 122°19'2 3.4
2014-Apr-14 14:00N 47°58' W 122°21'2 4.1
2014-Apr-14 13:34N 47°57' W 122°19'1 3.1
2014-Apr-14 13:06N 47°58' W 122°20'1 0.5
2014-Apr-14 12:05N 47°59' W 122°21'2 4.6
2014-Apr-14 11:34N 47°57' W 122°18'240.2
2014-Apr-14 11:30N 47°59' W 122°21'0 0.0
2014-Apr-14 10:34N 47°59' W 122°21'0 0.1
2014-Apr-14 10:16N 47°59' W 122°21'0 0.1
2014-Apr-14 09:33N 47°59' W 122°21'0 0.0
2014-Apr-14 09:30N 47°59' W 122°21'0 0.0
2014-Apr-14 08:30N 47°59' W 122°21'0 0.0
2014-Apr-14 08:15N 47°59' W 122°21'0 0.0
2014-Apr-14 07:34N 47°59' W 122°21'0 0.0
2014-Apr-14 06:34N 47°59' W 122°21'0 0.0
2014-Apr-14 05:33N 47°59' W 122°21'0 0.2
2014-Apr-14 04:05N 47°58' W 122°21'0 0.0
2014-Apr-14 02:03N 47°58' W 122°21'0 0.1
2014-Apr-14 01:03N 47°58' W 122°21'2 0.8
2014-Apr-13 22:30N 47°57' W 122°18'0 0.0
2014-Apr-13 21:16N 47°57' W 122°18'0 0.0
2014-Apr-13 20:33N 47°57' W 122°18'0 0.0
2014-Apr-13 19:31N 47°57' W 122°18'0 0.0
2014-Apr-13 18:33N 47°57' W 122°18'0 0.0
2014-Apr-13 17:34N 47°57' W 122°18'0 0.2
2014-Apr-13 16:33N 47°57' W 122°19'0 0.2
2014-Apr-13 15:33N 47°57' W 122°19'2 2.0
2014-Apr-13 14:33N 47°59' W 122°21'0 0.0
2014-Apr-13 13:33N 47°59' W 122°21'0 0.0
2014-Apr-13 12:08N 47°59' W 122°21'0 0.0
2014-Apr-13 11:15N 47°59' W 122°21'0 0.0
2014-Apr-13 10:28N 47°59' W 122°21'0 0.0
2014-Apr-13 09:21N 47°59' W 122°21'0 0.0
2014-Apr-13 08:10N 47°59' W 122°21'0 0.1
2014-Apr-13 07:26N 47°59' W 122°21'0 0.0
2014-Apr-13 06:33N 47°59' W 122°21'0 0.1
2014-Apr-13 05:30N 47°58' W 122°21'0 0.0
2014-Apr-13 04:17N 47°58' W 122°21'0 0.0
2014-Apr-13 03:32N 47°58' W 122°21'2 1.8
2014-Apr-13 02:33N 47°57' W 122°19'1 0.6
2014-Apr-13 01:33N 47°57' W 122°18'0 0.0
2014-Apr-13 00:33N 47°57' W 122°18'0 0.0
2014-Apr-12 23:33N 47°57' W 122°18'0 0.0
2014-Apr-12 22:33N 47°57' W 122°18'0 0.0
2014-Apr-12 21:33N 47°57' W 122°18'0 0.2
2014-Apr-12 20:33N 47°57' W 122°19'1 1.3
2014-Apr-12 19:37N 47°58' W 122°20'117.9
2014-Apr-12 19:33N 47°57' W 122°19'2 3.4
2014-Apr-12 19:02N 47°58' W 122°21'2 4.8
2014-Apr-12 18:33N 47°57' W 122°18'1 1.3
2014-Apr-12 17:37N 47°58' W 122°20'117.8
2014-Apr-12 17:33N 47°57' W 122°19'2 2.2
2014-Apr-12 16:46N 47°58' W 122°21'2 9.4
2014-Apr-12 16:33N 47°57' W 122°18'0 0.3
2014-Apr-12 15:33N 47°57' W 122°19'2 2.1
2014-Apr-12 14:32N 47°59' W 122°21'0 0.0
2014-Apr-12 13:27N 47°59' W 122°21'0 0.0
2014-Apr-12 10:32N 47°59' W 122°21'0 0.0
2014-Apr-12 09:29N 47°59' W 122°21'0 0.0
2014-Apr-12 08:33N 47°59' W 122°21'0 0.0
2014-Apr-12 04:54N 47°59' W 122°21'0 0.1
2014-Apr-12 04:32N 47°59' W 122°21'2 1.7
2014-Apr-12 03:33N 47°58' W 122°19'1 0.7
2014-Apr-12 02:34N 47°57' W 122°18'0 0.0
2014-Apr-12 01:34N 47°57' W 122°18'1 3.3
2014-Apr-12 01:08N 47°58' W 122°20'1 2.2
2014-Apr-12 00:34N 47°57' W 122°18'2 2.6
2014-Apr-11 23:44N 47°58' W 122°21'212.8
2014-Apr-11 23:33N 47°57' W 122°18'0 0.0
2014-Apr-11 22:34N 47°57' W 122°18'0 0.1
2014-Apr-11 21:33N 47°57' W 122°19'2 2.4
2014-Apr-11 20:43N 47°58' W 122°21'211.9
2014-Apr-11 20:33N 47°57' W 122°19'0 0.3
2014-Apr-11 19:33N 47°57' W 122°18'0 0.0
2014-Apr-11 18:33N 47°57' W 122°18'1 3.5
2014-Apr-11 18:08N 47°58' W 122°20'1 2.4
2014-Apr-11 17:33N 47°57' W 122°18'0 0.3
2014-Apr-11 16:33N 47°57' W 122°19'0 0.0
2014-Apr-11 15:33N 47°57' W 122°19'1 1.4
2014-Apr-11 14:38N 47°58' W 122°20'  

Dump ship's entire track history

sailing weather and tide predictions

Kittitas — WYQ9302 — position and weather